createdAt,value
2022-11-06T00:00:10.796Z,1.98
2022-11-06T00:01:10.549Z,1.98
2022-11-06T00:02:12.611Z,1.25
2022-11-06T00:03:11.382Z,1.25
2022-11-06T00:04:10.510Z,1.34
2022-11-06T00:05:10.772Z,1.34
2022-11-06T00:06:11.218Z,2.09
2022-11-06T00:07:10.660Z,1.29
2022-11-06T00:08:11.200Z,1.29
2022-11-06T00:09:10.431Z,1.49
2022-11-06T00:10:10.768Z,1.49
2022-11-06T00:11:11.050Z,2.22
2022-11-06T00:12:10.454Z,2.22
2022-11-06T00:13:10.924Z,1.33
2022-11-06T00:14:11.167Z,1.04
2022-11-06T00:15:10.545Z,1.04
2022-11-06T00:16:11.118Z,1.09
2022-11-06T00:17:10.569Z,2.01
2022-11-06T00:18:11.152Z,2.01
2022-11-06T00:19:11.257Z,1.98
2022-11-06T00:20:10.722Z,1.98
2022-11-06T00:21:11.058Z,1
2022-11-06T00:22:10.460Z,1
2022-11-06T00:23:10.718Z,1.54
2022-11-06T00:24:11.055Z,1.54
2022-11-06T00:25:10.433Z,1.41
2022-11-06T00:26:10.766Z,1.41
2022-11-06T00:27:11.289Z,0.99
2022-11-06T00:28:10.829Z,1.23
2022-11-06T00:29:11.022Z,1.23
2022-11-06T00:30:10.435Z,1.06
2022-11-06T00:31:10.842Z,2.24
2022-11-06T00:32:11.195Z,2.24
2022-11-06T00:33:10.554Z,1.5
2022-11-06T00:34:10.936Z,1.5
2022-11-06T00:35:11.191Z,1.11
2022-11-06T00:36:10.519Z,1.11
2022-11-06T00:37:10.879Z,0.95
2022-11-06T00:38:11.763Z,0.88
2022-11-06T00:39:10.619Z,0.88
2022-11-06T00:40:10.981Z,0.7
2022-11-06T00:41:10.349Z,1.52
2022-11-06T00:42:10.665Z,1.52
2022-11-06T00:43:10.982Z,1.06
2022-11-06T00:44:10.343Z,1.06
2022-11-06T00:45:10.675Z,1.85
2022-11-06T00:46:11.015Z,1.85
2022-11-06T00:47:11.325Z,1.34
2022-11-06T00:48:10.889Z,1.38
2022-11-06T00:49:11.108Z,1.38
2022-11-06T00:50:10.386Z,1.38
2022-11-06T00:51:10.754Z,1.51
2022-11-06T00:52:11.150Z,1
2022-11-06T00:53:10.524Z,1
2022-11-06T00:54:10.844Z,1.36
2022-11-06T00:55:11.102Z,1.61
2022-11-06T00:56:10.479Z,1.61
2022-11-06T00:57:10.746Z,1.24
2022-11-06T00:58:11.351Z,1.24
2022-11-06T00:59:10.445Z,1.35
2022-11-06T01:00:10.847Z,1.35
2022-11-06T01:01:11.144Z,1.28
2022-11-06T01:02:10.817Z,0.97
2022-11-06T01:03:11.079Z,0.97
2022-11-06T01:04:11.311Z,1.48
2022-11-06T01:05:10.644Z,1.76
2022-11-06T01:06:11.072Z,1.76
2022-11-06T01:07:10.401Z,1.25
2022-11-06T01:08:11.001Z,1.25
2022-11-06T01:09:11.080Z,1.09
2022-11-06T01:10:10.490Z,1.09
2022-11-06T01:11:10.926Z,1.21
2022-11-06T01:12:16.272Z,0.99
2022-11-06T01:13:10.632Z,0.99
2022-11-06T01:14:11.111Z,1.64
2022-11-06T01:15:10.413Z,1.64
2022-11-06T01:16:10.748Z,1.62
2022-11-06T01:17:10.982Z,1.62
2022-11-06T01:18:10.511Z,0.91
2022-11-06T01:19:10.592Z,1.43
2022-11-06T01:20:11.052Z,1.43
2022-11-06T01:21:10.499Z,1.09
2022-11-06T01:22:10.853Z,1.09
2022-11-06T01:23:11.166Z,1.42
2022-11-06T01:24:10.678Z,1.42
2022-11-06T01:25:10.897Z,0.99
2022-11-06T01:26:11.237Z,1.39
2022-11-06T01:27:40.537Z,1.39
2022-11-06T01:28:11.067Z,1.16
2022-11-06T01:29:11.100Z,1.16
2022-11-06T01:30:10.568Z,1.5
2022-11-06T01:31:10.948Z,1.5
2022-11-06T01:32:11.313Z,0.64
2022-11-06T01:33:10.646Z,0.91
2022-11-06T01:34:11.037Z,0.91
2022-11-06T01:35:10.419Z,1.32
2022-11-06T01:36:10.722Z,1.32
2022-11-06T01:37:16.309Z,0.92
2022-11-06T01:38:10.458Z,0.92
2022-11-06T01:39:10.616Z,0.67
2022-11-06T01:40:10.999Z,0.55
2022-11-06T01:41:10.332Z,0.55
2022-11-06T01:42:10.745Z,1.15
2022-11-06T01:43:11.118Z,0.62
2022-11-06T01:44:11.919Z,0.62
2022-11-06T01:45:10.924Z,1.35
2022-11-06T01:46:11.254Z,1.35
2022-11-06T01:47:10.641Z,1.62
2022-11-06T01:48:11.207Z,1.62
2022-11-06T01:49:10.247Z,1.29
2022-11-06T01:50:10.562Z,0.84
2022-11-06T01:51:10.939Z,0.84
2022-11-06T01:52:10.296Z,0.86
2022-11-06T01:53:10.724Z,0.86
2022-11-06T01:54:11.100Z,1.77
2022-11-06T01:55:10.509Z,1.77
2022-11-06T01:56:10.932Z,1.44
2022-11-06T01:57:11.193Z,1.44
2022-11-06T01:58:10.725Z,0.79
2022-11-06T01:59:10.786Z,0.79
2022-11-06T02:00:11.188Z,0.68
2022-11-06T02:01:10.477Z,0.68
2022-11-06T02:02:11.181Z,0.84
2022-11-06T02:03:11.359Z,0.84
2022-11-06T02:04:10.543Z,0.59
2022-11-06T02:05:10.938Z,0.59
2022-11-06T02:06:11.318Z,0.91
2022-11-06T02:07:10.652Z,1.45
2022-11-06T02:08:11.358Z,1.45
2022-11-06T02:09:10.413Z,1.67
2022-11-06T02:10:10.710Z,1.67
2022-11-06T02:11:10.930Z,3.04
2022-11-06T02:12:10.369Z,3.04
2022-11-06T02:13:10.696Z,1.29
2022-11-06T02:14:10.361Z,0.99
2022-11-06T02:15:10.821Z,0.99
2022-11-06T02:16:11.210Z,1.25
2022-11-06T02:17:10.586Z,1.25
2022-11-06T02:18:11.158Z,1.28
2022-11-06T02:19:11.176Z,1.28
2022-11-06T02:20:10.495Z,0.92
2022-11-06T02:21:10.752Z,1.11
2022-11-06T02:22:11.113Z,1.11
2022-11-06T02:23:10.587Z,1.18
2022-11-06T02:24:10.937Z,1.18
2022-11-06T02:25:11.270Z,1.78
2022-11-06T02:26:10.691Z,1.78
2022-11-06T02:27:10.993Z,0.95
2022-11-06T02:28:10.547Z,1.49
2022-11-06T02:29:10.692Z,1.49
2022-11-06T02:30:11.081Z,1.09
2022-11-06T02:31:10.435Z,0.92
2022-11-06T02:32:10.648Z,0.92
2022-11-06T02:33:11.047Z,1.05
2022-11-06T02:34:10.654Z,1.05
2022-11-06T02:35:11.049Z,1.6
2022-11-06T02:36:10.419Z,1.6
2022-11-06T02:37:10.767Z,1.26
2022-11-06T02:38:11.227Z,1.4
2022-11-06T02:39:10.414Z,1.4
2022-11-06T02:40:10.701Z,1.28
2022-11-06T02:41:11.078Z,1.28
2022-11-06T02:42:10.314Z,1.02
2022-11-06T02:43:10.653Z,1.02
2022-11-06T02:44:11.094Z,1.82
2022-11-06T02:45:10.446Z,1.26
2022-11-06T02:46:10.831Z,1.26
2022-11-06T02:47:11.184Z,1.12
2022-11-06T02:48:10.953Z,1.12
2022-11-06T02:49:10.882Z,1.61
2022-11-06T02:50:11.206Z,1.61
2022-11-06T02:51:10.535Z,1.29
2022-11-06T02:52:10.879Z,2.41
2022-11-06T02:53:11.224Z,2.41
2022-11-06T02:54:10.666Z,1.72
2022-11-06T02:55:10.939Z,1.06
2022-11-06T02:56:11.249Z,1.06
2022-11-06T02:57:10.742Z,1.48
2022-11-06T02:58:11.298Z,1.48
2022-11-06T02:59:10.415Z,2.02
2022-11-06T03:00:10.981Z,2.02
2022-11-06T03:01:10.349Z,1.29
2022-11-06T03:02:10.902Z,1.16
2022-11-06T03:03:11.018Z,1.16
2022-11-06T03:04:10.278Z,1.24
2022-11-06T03:05:10.655Z,1.24
2022-11-06T03:06:11.087Z,1.11
2022-11-06T03:07:10.432Z,1.11
2022-11-06T03:08:11.197Z,3.14
2022-11-06T03:09:11.255Z,2.05
2022-11-06T03:10:10.652Z,2.05
2022-11-06T03:11:10.985Z,1.72
2022-11-06T03:12:11.279Z,1.72
2022-11-06T03:13:10.684Z,1.26
2022-11-06T03:14:10.845Z,1.26
2022-11-06T03:15:11.242Z,1.52
2022-11-06T03:16:10.758Z,1.16
2022-11-06T03:17:11.068Z,1.16
2022-11-06T03:18:10.621Z,1.88
2022-11-06T03:19:10.888Z,1.88
2022-11-06T03:20:11.301Z,1.6
2022-11-06T03:21:10.694Z,1.6
2022-11-06T03:22:11.024Z,1.06
2022-11-06T03:23:10.374Z,1.21
2022-11-06T03:24:10.712Z,1.21
2022-11-06T03:25:11.127Z,1.44
2022-11-06T03:26:11.043Z,1.18
2022-11-06T03:27:10.469Z,1.18
2022-11-06T03:28:11.053Z,0.84
2022-11-06T03:29:11.191Z,0.84
2022-11-06T03:30:16.877Z,0.75
2022-11-06T03:31:10.978Z,0.75
2022-11-06T03:32:11.283Z,1.3
2022-11-06T03:33:10.661Z,1.46
2022-11-06T03:34:10.953Z,1.46
2022-11-06T03:35:11.334Z,1.99
2022-11-06T03:36:10.729Z,1.99
2022-11-06T03:37:11.171Z,0.88
2022-11-06T03:38:10.841Z,0.88
2022-11-06T03:39:10.891Z,1.25
2022-11-06T03:40:11.209Z,1.02
2022-11-06T03:41:10.555Z,1.02
2022-11-06T03:42:10.932Z,1.44
2022-11-06T03:43:11.349Z,1.44
2022-11-06T03:44:10.627Z,1.22
2022-11-06T03:45:11.013Z,1.22
2022-11-06T03:46:11.218Z,1.64
2022-11-06T03:47:10.584Z,1.48
2022-11-06T03:48:11.340Z,1.48
2022-11-06T03:49:10.420Z,1.35
2022-11-06T03:50:11.012Z,1.35
2022-11-06T03:51:10.540Z,1.16
2022-11-06T03:52:10.906Z,1.16
2022-11-06T03:53:11.305Z,0.95
2022-11-06T03:54:10.683Z,1.89
2022-11-06T03:55:10.959Z,1.89
2022-11-06T03:56:11.252Z,0.77
2022-11-06T03:57:10.665Z,0.77
2022-11-06T03:58:11.131Z,1.71
2022-11-06T03:59:11.603Z,1.71
2022-11-06T04:00:10.998Z,0.87
2022-11-06T04:01:10.534Z,1.22
2022-11-06T04:02:11.174Z,1.22
2022-11-06T04:03:11.403Z,1.66
2022-11-06T04:04:10.597Z,1.11
2022-11-06T04:05:10.888Z,1.11
2022-11-06T04:06:11.203Z,1.5
2022-11-06T04:07:10.588Z,1.5
2022-11-06T04:08:11.254Z,1.32
2022-11-06T04:09:10.435Z,1.32
2022-11-06T04:10:10.847Z,1.04
2022-11-06T04:11:10.389Z,0.94
2022-11-06T04:12:10.722Z,0.94
2022-11-06T04:13:11.158Z,2.22
2022-11-06T04:14:10.439Z,2.22
2022-11-06T04:15:10.712Z,0.99
2022-11-06T04:16:11.121Z,0.99
2022-11-06T04:17:10.473Z,1.61
2022-11-06T04:18:10.993Z,1.48
2022-11-06T04:19:11.142Z,1.48
2022-11-06T04:20:10.562Z,1.77
2022-11-06T04:21:10.943Z,1.94
2022-11-06T04:22:11.330Z,1.94
2022-11-06T04:23:10.717Z,1.05
2022-11-06T04:24:11.048Z,1.05
2022-11-06T04:25:10.370Z,1.38
2022-11-06T04:26:10.769Z,1.38
2022-11-06T04:27:11.053Z,2.47
2022-11-06T04:28:10.647Z,2.04
2022-11-06T04:29:10.851Z,2.04
2022-11-06T04:30:11.247Z,1.37
2022-11-06T04:31:10.632Z,1.37
2022-11-06T04:32:10.958Z,0.84
2022-11-06T04:33:11.216Z,0.84
2022-11-06T04:34:10.345Z,1.28
2022-11-06T04:35:10.693Z,1.39
2022-11-06T04:36:11.095Z,1.39
2022-11-06T04:37:10.392Z,1.89
2022-11-06T04:38:10.959Z,1.89
2022-11-06T04:39:11.008Z,1.31
2022-11-06T04:40:11.317Z,1.31
2022-11-06T04:41:10.708Z,1.18
2022-11-06T04:42:11.128Z,1.5
2022-11-06T04:43:10.483Z,1.5
2022-11-06T04:44:10.773Z,1.49
2022-11-06T04:45:11.161Z,1.25
2022-11-06T04:46:10.474Z,1.25
2022-11-06T04:47:10.788Z,1.36
2022-11-06T04:48:11.342Z,1.36
2022-11-06T04:49:10.495Z,1.44
2022-11-06T04:50:10.826Z,1.44
2022-11-06T04:51:11.165Z,1.52
2022-11-06T04:52:10.604Z,2.08
2022-11-06T04:53:10.966Z,2.08
2022-11-06T04:54:10.343Z,2.54
2022-11-06T04:55:10.787Z,2.54
2022-11-06T04:56:11.106Z,1.85
2022-11-06T04:57:11.288Z,1.85
2022-11-06T04:58:10.752Z,1.33
2022-11-06T04:59:10.903Z,1.76
2022-11-06T05:00:11.264Z,1.76
2022-11-06T05:01:10.861Z,1.57
2022-11-06T05:02:11.221Z,1.57
2022-11-06T05:03:10.431Z,2.55
2022-11-06T05:04:10.757Z,2.55
2022-11-06T05:05:11.144Z,1.38
2022-11-06T05:06:10.985Z,1.46
2022-11-06T05:07:10.362Z,1.46
2022-11-06T05:08:10.851Z,2.44
2022-11-06T05:09:11.007Z,1.88
2022-11-06T05:10:10.427Z,1.88
2022-11-06T05:11:10.727Z,3.18
2022-11-06T05:12:11.168Z,3.18
2022-11-06T05:13:10.573Z,2.79
2022-11-06T05:14:10.941Z,2.79
2022-11-06T05:15:11.329Z,1.81
2022-11-06T05:16:10.626Z,1.57
2022-11-06T05:17:10.760Z,1.57
2022-11-06T05:18:11.511Z,1.25
2022-11-06T05:19:10.391Z,1.25
2022-11-06T05:20:11.020Z,2.01
2022-11-06T05:21:10.488Z,2.01
2022-11-06T05:22:10.788Z,1.05
2022-11-06T05:23:11.188Z,1.31
2022-11-06T05:24:10.598Z,1.31
2022-11-06T05:25:10.926Z,1.18
2022-11-06T05:26:11.311Z,1.18
2022-11-06T05:27:10.573Z,0.74
2022-11-06T05:28:11.210Z,0.74
2022-11-06T05:29:11.261Z,1.69
2022-11-06T05:30:10.645Z,1.26
2022-11-06T05:31:11.095Z,1.26
2022-11-06T05:32:10.490Z,1.92
2022-11-06T05:33:10.852Z,1.92
2022-11-06T05:34:11.230Z,1.05
2022-11-06T05:35:10.663Z,1.05
2022-11-06T05:36:10.979Z,0.96
2022-11-06T05:37:11.419Z,1.76
2022-11-06T05:38:11.021Z,1.76
2022-11-06T05:39:11.089Z,2.93
2022-11-06T05:40:10.415Z,1.4
2022-11-06T05:41:10.714Z,1.4
2022-11-06T05:42:11.151Z,1.39
2022-11-06T05:43:10.364Z,1.39
2022-11-06T05:44:10.809Z,2.17
2022-11-06T05:45:11.220Z,2.17
2022-11-06T05:46:48.545Z,1.08
2022-11-06T05:47:10.678Z,1.54
2022-11-06T05:48:11.357Z,1.54
2022-11-06T05:49:10.355Z,1.26
2022-11-06T05:50:10.705Z,1.26
2022-11-06T05:51:11.028Z,1.36
2022-11-06T05:52:11.309Z,1.36
2022-11-06T05:53:10.680Z,1.68
2022-11-06T05:54:10.955Z,2.31
2022-11-06T05:55:16.276Z,2.31
2022-11-06T05:56:10.836Z,1.96
2022-11-06T05:57:11.209Z,1.96
2022-11-06T05:58:10.685Z,3.19
2022-11-06T05:59:10.895Z,3.19
2022-11-06T06:00:11.298Z,1.91
2022-11-06T06:01:10.580Z,1.91
2022-11-06T06:02:11.290Z,1.54
2022-11-06T06:03:10.607Z,1.54
2022-11-06T06:04:10.731Z,1.79
2022-11-06T06:05:11.048Z,1.79
2022-11-06T06:06:10.541Z,1.81
2022-11-06T06:07:10.907Z,1.81
2022-11-06T06:08:11.501Z,1.54
2022-11-06T06:09:10.760Z,1.54
2022-11-06T06:10:11.022Z,2.19
2022-11-06T06:11:10.358Z,3.14
2022-11-06T06:12:10.661Z,3.14
2022-11-06T06:13:10.406Z,1.91
2022-11-06T06:14:10.776Z,1.91
2022-11-06T06:15:11.149Z,1.35
2022-11-06T06:16:10.523Z,1.35
2022-11-06T06:17:10.854Z,1.49
2022-11-06T06:18:11.402Z,1.42
2022-11-06T06:19:10.546Z,1.42
2022-11-06T06:20:10.893Z,1.66
2022-11-06T06:21:11.180Z,1.66
2022-11-06T06:22:10.600Z,1.05
2022-11-06T06:23:11.838Z,1.05
2022-11-06T06:24:11.305Z,1.57
2022-11-06T06:25:22.828Z,2.25
2022-11-06T06:26:11.115Z,2.25
2022-11-06T06:27:10.524Z,2.05
2022-11-06T06:28:11.199Z,1.49
2022-11-06T06:29:11.231Z,1.49
2022-11-06T06:30:10.668Z,2.91
2022-11-06T06:31:11.013Z,2.91
2022-11-06T06:32:11.315Z,2.01
2022-11-06T06:33:10.623Z,2.01
2022-11-06T06:34:10.936Z,2.37
2022-11-06T06:35:11.296Z,2.68
2022-11-06T06:36:10.729Z,2.68
2022-11-06T06:37:11.064Z,2.26
2022-11-06T06:38:10.825Z,2.26
2022-11-06T06:39:10.854Z,1.89
2022-11-06T06:40:11.268Z,1.89
2022-11-06T06:41:10.550Z,3.38
2022-11-06T06:42:10.839Z,1.64
2022-11-06T06:43:11.228Z,1.64
2022-11-06T06:44:10.623Z,1.51
2022-11-06T06:45:11.228Z,1.51
2022-11-06T06:46:10.640Z,1.51
2022-11-06T06:47:11.025Z,1.51
2022-11-06T06:48:10.596Z,2.38
2022-11-06T06:49:10.748Z,1.55
2022-11-06T06:50:11.127Z,1.55
2022-11-06T06:51:10.513Z,1.34
2022-11-06T06:52:10.794Z,1.34
2022-11-06T06:53:11.134Z,1.99
2022-11-06T06:54:10.507Z,1.99
2022-11-06T06:55:10.862Z,2.28
2022-11-06T06:56:11.246Z,2.87
2022-11-06T06:57:10.661Z,2.87
2022-11-06T06:58:17.812Z,1.84
2022-11-06T06:59:10.477Z,2.68
2022-11-06T07:00:10.963Z,2.68
2022-11-06T07:01:11.450Z,2.25
2022-11-06T07:02:10.692Z,2.25
2022-11-06T07:03:10.911Z,1.98
2022-11-06T07:04:11.235Z,1.98
2022-11-06T07:05:10.619Z,1.16
2022-11-06T07:06:10.958Z,1.27
2022-11-06T07:07:11.356Z,1.27
2022-11-06T07:08:10.905Z,2.54
2022-11-06T07:09:11.062Z,2.54
2022-11-06T07:10:10.437Z,1.38
2022-11-06T07:11:10.924Z,1.38
2022-11-06T07:12:11.243Z,1.61
2022-11-06T07:13:10.705Z,0.91
2022-11-06T07:14:10.875Z,0.91
2022-11-06T07:15:11.247Z,0.85
2022-11-06T07:16:10.602Z,1.64
2022-11-06T07:17:10.990Z,1.64
2022-11-06T07:18:11.593Z,1.28
2022-11-06T07:19:10.670Z,1.28
2022-11-06T07:20:11.031Z,1.06
2022-11-06T07:21:10.377Z,1.06
2022-11-06T07:22:10.783Z,1.18
2022-11-06T07:23:11.230Z,1.08
2022-11-06T07:24:10.526Z,1.08
2022-11-06T07:25:10.817Z,0.95
2022-11-06T07:26:11.213Z,0.95
2022-11-06T07:27:10.523Z,1.09
2022-11-06T07:28:10.911Z,1.09
2022-11-06T07:29:11.202Z,1.25
2022-11-06T07:30:10.637Z,1.25
2022-11-06T07:31:10.931Z,1.02
2022-11-06T07:32:11.344Z,2.12
2022-11-06T07:33:10.691Z,2.12
2022-11-06T07:34:11.051Z,0.98
2022-11-06T07:35:11.351Z,0.98
2022-11-06T07:36:10.690Z,0.98
2022-11-06T07:37:10.925Z,0.98
2022-11-06T07:38:10.657Z,1.49
2022-11-06T07:39:10.900Z,1.49
2022-11-06T07:40:11.274Z,1.85
2022-11-06T07:41:10.664Z,1.85
2022-11-06T07:42:11.036Z,1.08
2022-11-06T07:43:10.491Z,1.08
2022-11-06T07:44:10.821Z,1.29
2022-11-06T07:45:11.296Z,1.29
2022-11-06T07:46:10.667Z,1.35
2022-11-06T07:47:11.024Z,1.55
2022-11-06T07:48:10.422Z,1.55
2022-11-06T07:49:10.744Z,1.65
2022-11-06T07:50:11.122Z,1.65
2022-11-06T07:51:10.485Z,1.06
2022-11-06T07:52:10.921Z,1.06
2022-11-06T07:53:11.609Z,1.87
2022-11-06T07:54:10.607Z,1.28
2022-11-06T07:55:11.057Z,1.28
2022-11-06T07:56:11.308Z,1.6
2022-11-06T07:57:10.554Z,1.6
2022-11-06T07:58:11.264Z,1.42
2022-11-06T07:59:11.315Z,1.42
2022-11-06T08:00:10.736Z,1.65
2022-11-06T08:01:18.113Z,1.65
2022-11-06T08:02:10.669Z,1.55
2022-11-06T08:03:10.881Z,1.55
2022-11-06T08:04:11.221Z,1.36
2022-11-06T08:05:10.581Z,1.71
2022-11-06T08:06:10.916Z,1.71
2022-11-06T08:07:11.180Z,1.39
2022-11-06T08:08:10.642Z,1.26
2022-11-06T08:09:10.807Z,1.26
2022-11-06T08:10:11.185Z,1.83
2022-11-06T08:11:10.573Z,1.96
2022-11-06T08:12:11.304Z,2.53
2022-11-06T08:13:11.153Z,2.53
2022-11-06T08:14:10.503Z,2.36
2022-11-06T08:15:10.927Z,2.11
2022-11-06T08:16:11.268Z,2.11
2022-11-06T08:17:10.679Z,1.66
2022-11-06T08:18:11.211Z,2.21
2022-11-06T08:19:11.259Z,2.21
2022-11-06T08:20:10.653Z,2.02
2022-11-06T08:21:11.066Z,2.02
2022-11-06T08:22:11.375Z,2.14
2022-11-06T08:23:10.805Z,2.14
2022-11-06T08:24:11.125Z,1.82
2022-11-06T08:25:10.505Z,1.61
2022-11-06T08:26:10.882Z,1.61
2022-11-06T08:27:11.282Z,2.65
2022-11-06T08:28:10.844Z,2.65
2022-11-06T08:29:10.720Z,2.96
2022-11-06T08:30:11.149Z,2.96
2022-11-06T08:31:10.570Z,2.27
2022-11-06T08:32:10.935Z,2.3
2022-11-06T08:33:11.394Z,2.3
2022-11-06T08:34:10.742Z,2.44
2022-11-06T08:35:11.179Z,2.44
2022-11-06T08:36:10.479Z,2.57
2022-11-06T08:37:10.787Z,2.57
2022-11-06T08:38:11.312Z,2.14
2022-11-06T08:39:10.339Z,2.25
2022-11-06T08:40:10.623Z,2.25
2022-11-06T08:41:11.006Z,3.64
2022-11-06T08:42:10.421Z,2.77
2022-11-06T08:43:11.328Z,2.77
2022-11-06T08:44:10.546Z,2.58
2022-11-06T08:45:10.999Z,2.58
2022-11-06T08:46:10.401Z,3.19
2022-11-06T08:47:10.793Z,3.19
2022-11-06T08:48:11.127Z,2.18
2022-11-06T08:49:10.492Z,2.94
2022-11-06T08:50:10.838Z,2.94
2022-11-06T08:51:11.085Z,2.61
2022-11-06T08:52:10.509Z,2.61
2022-11-06T08:53:11.361Z,2.96
2022-11-06T08:54:11.376Z,2.96
2022-11-06T08:55:10.587Z,1.66
2022-11-06T08:56:11.021Z,2.28
2022-11-06T08:57:11.398Z,2.28
2022-11-06T08:58:10.752Z,2.94
2022-11-06T08:59:11.109Z,2.94
2022-11-06T09:00:11.417Z,1.91
2022-11-06T09:01:10.745Z,1.91
2022-11-06T09:02:11.132Z,3.09
2022-11-06T09:03:11.683Z,3.01
2022-11-06T09:04:10.713Z,3.01
2022-11-06T09:05:11.116Z,2.61
2022-11-06T09:06:10.560Z,1.39
2022-11-06T09:07:10.963Z,1.39
2022-11-06T09:08:11.364Z,1.96
2022-11-06T09:09:10.605Z,1.96
2022-11-06T09:10:10.977Z,2.33
2022-11-06T09:11:11.288Z,2.33
2022-11-06T09:12:10.758Z,1.42
2022-11-06T09:13:11.202Z,1.42
2022-11-06T09:14:11.401Z,3.97
2022-11-06T09:15:10.879Z,3.97
2022-11-06T09:16:17.654Z,1.68
2022-11-06T09:17:10.663Z,1.72
2022-11-06T09:18:11.008Z,1.72
2022-11-06T09:19:11.344Z,2.7
2022-11-06T09:20:10.635Z,2.84
2022-11-06T09:21:10.975Z,2.84
2022-11-06T09:22:11.226Z,1.89
2022-11-06T09:23:10.789Z,1.89
2022-11-06T09:24:11.216Z,2.7
2022-11-06T09:25:10.599Z,2.7
2022-11-06T09:26:10.950Z,2.49
2022-11-06T09:27:11.372Z,3.16
2022-11-06T09:28:10.711Z,3.16
2022-11-06T09:29:11.106Z,2.78
2022-11-06T09:30:10.513Z,1.73
2022-11-06T09:31:10.787Z,1.73
2022-11-06T09:32:11.142Z,2.56
2022-11-06T09:33:15.752Z,2.56
2022-11-06T09:34:10.847Z,2.44
2022-11-06T09:35:11.215Z,2.44
2022-11-06T09:36:10.621Z,2.78
2022-11-06T09:37:11.084Z,1.48
2022-11-06T09:38:11.388Z,1.48
2022-11-06T09:39:10.701Z,2.65
2022-11-06T09:40:11.061Z,2.65
2022-11-06T09:41:11.313Z,2.57
2022-11-06T09:42:10.723Z,2.57
2022-11-06T09:43:11.216Z,2.92
2022-11-06T09:44:10.502Z,2.61
2022-11-06T09:45:10.827Z,2.61
2022-11-06T09:46:11.203Z,2.4
2022-11-06T09:47:10.569Z,2.4
2022-11-06T09:48:11.032Z,2.12
2022-11-06T09:49:11.323Z,2.12
2022-11-06T09:50:10.703Z,2.19
2022-11-06T09:51:11.139Z,4.18
2022-11-06T09:52:11.364Z,4.18
2022-11-06T09:53:10.473Z,2.94
2022-11-06T09:54:10.817Z,2.94
2022-11-06T09:55:11.222Z,2.16
2022-11-06T09:56:10.583Z,2.16
2022-11-06T09:57:10.924Z,1.99
2022-11-06T09:58:11.486Z,2.53
2022-11-06T09:59:10.745Z,2.53
2022-11-06T10:00:11.226Z,2.92
2022-11-06T10:01:11.630Z,2.05
2022-11-06T10:02:11.214Z,2.23
2022-11-06T10:03:11.370Z,2.23
2022-11-06T10:04:10.535Z,3.02
2022-11-06T10:05:10.886Z,2.88
2022-11-06T10:06:11.264Z,2.88
2022-11-06T10:07:10.589Z,1.24
2022-11-06T10:08:11.202Z,2.29
2022-11-06T10:09:11.327Z,2.29
2022-11-06T10:10:10.712Z,1.06
2022-11-06T10:11:11.125Z,1.06
2022-11-06T10:12:10.623Z,1.74
2022-11-06T10:13:13.676Z,1.74
2022-11-06T10:14:11.059Z,2.09
2022-11-06T10:15:10.390Z,1.89
2022-11-06T10:16:10.803Z,1.89
2022-11-06T10:17:11.273Z,2.11
2022-11-06T10:18:10.591Z,2.11
2022-11-06T10:19:10.908Z,1.6
2022-11-06T10:20:11.273Z,1.6
2022-11-06T10:21:10.600Z,2.26
2022-11-06T10:22:10.975Z,2.26
2022-11-06T10:23:10.469Z,3.24
2022-11-06T10:24:10.842Z,3.24
2022-11-06T10:25:11.196Z,2.29
2022-11-06T10:26:10.461Z,2.29
2022-11-06T10:27:10.943Z,2.87
2022-11-06T10:28:11.557Z,2.87
2022-11-06T10:29:10.640Z,3.46
2022-11-06T10:30:11.114Z,3.46
2022-11-06T10:31:10.537Z,2.65
2022-11-06T10:32:10.864Z,2.78
2022-11-06T10:33:11.254Z,2.78
2022-11-06T10:34:10.678Z,3.41
2022-11-06T10:35:10.868Z,3.41
2022-11-06T10:36:11.168Z,3.78
2022-11-06T10:37:10.583Z,3.78
2022-11-06T10:38:11.180Z,2.84
2022-11-06T10:39:11.294Z,3.16
2022-11-06T10:40:10.646Z,3.16
2022-11-06T10:41:11.025Z,2.74
2022-11-06T10:42:11.382Z,2.74
2022-11-06T10:43:10.746Z,2.72
2022-11-06T10:44:11.071Z,2.72
2022-11-06T10:45:10.425Z,2.86
2022-11-06T10:46:10.880Z,2.86
2022-11-06T10:47:11.203Z,2.65
2022-11-06T10:48:10.649Z,2.65
2022-11-06T10:49:10.825Z,2.16
2022-11-06T10:50:11.170Z,3.5
2022-11-06T10:51:10.494Z,3.5
2022-11-06T10:52:10.835Z,1.72
2022-11-06T10:53:11.181Z,2.81
2022-11-06T10:54:10.526Z,2.81
2022-11-06T10:55:10.852Z,3.61
2022-11-06T10:56:15.822Z,2.31
2022-11-06T10:57:10.747Z,2.31
2022-11-06T10:58:11.366Z,3.61
2022-11-06T10:59:10.484Z,3.61
2022-11-06T11:00:10.909Z,1.86
2022-11-06T11:01:11.468Z,1.86
2022-11-06T11:02:10.958Z,2.83
2022-11-06T11:03:11.030Z,3.12
2022-11-06T11:04:11.444Z,3.12
2022-11-06T11:05:10.743Z,2.73
2022-11-06T11:06:10.963Z,2.73
2022-11-06T11:07:11.295Z,2.54
2022-11-06T11:08:10.917Z,2.54
2022-11-06T11:09:11.076Z,1.59
2022-11-06T11:10:11.457Z,2.87
2022-11-06T11:11:10.878Z,2.87
2022-11-06T11:12:11.283Z,2.54
2022-11-06T11:13:11.225Z,2.54
2022-11-06T11:14:10.905Z,2.48
2022-11-06T11:15:11.353Z,2.48
2022-11-06T11:16:10.797Z,1.35
2022-11-06T11:17:10.949Z,2.16
2022-11-06T11:18:11.449Z,2.16
2022-11-06T11:19:10.694Z,1.86
2022-11-06T11:20:11.031Z,1.37
2022-11-06T11:21:11.399Z,1.37
2022-11-06T11:22:10.781Z,2.5
2022-11-06T11:23:11.242Z,2.5
2022-11-06T11:24:10.539Z,2.52
2022-11-06T11:25:10.836Z,2.52
2022-11-06T11:26:11.199Z,3.05
2022-11-06T11:27:11.416Z,2.25
2022-11-06T11:28:10.783Z,2.25
2022-11-06T11:29:11.067Z,2.67
2022-11-06T11:30:11.483Z,2.67
2022-11-06T11:31:10.914Z,2.1
2022-11-06T11:32:11.300Z,2.1
2022-11-06T11:33:10.583Z,3.05
2022-11-06T11:34:10.969Z,3.37
2022-11-06T11:35:11.345Z,3.37
2022-11-06T11:36:10.692Z,1.64
2022-11-06T11:37:11.141Z,1.64
2022-11-06T11:38:10.580Z,3.05
2022-11-06T11:39:10.925Z,3.05
2022-11-06T11:40:15.480Z,3.15
2022-11-06T11:41:10.595Z,2.67
2022-11-06T11:42:10.985Z,2.67
2022-11-06T11:43:11.389Z,2.24
2022-11-06T11:44:10.823Z,2.24
2022-11-06T11:45:11.244Z,2.46
2022-11-06T11:46:10.553Z,2.46
2022-11-06T11:47:11.418Z,2.92
2022-11-06T11:48:11.420Z,2.5
2022-11-06T11:49:10.432Z,2.5
2022-11-06T11:50:10.719Z,2.24
2022-11-06T11:51:11.170Z,2.85
2022-11-06T11:52:10.582Z,2.85
2022-11-06T11:53:12.813Z,3.56
2022-11-06T11:54:11.378Z,3.56
2022-11-06T11:55:10.779Z,2.63
2022-11-06T11:56:11.143Z,2.63
2022-11-06T11:57:10.056Z,2.41
2022-11-06T11:58:11.307Z,2.6
2022-11-06T11:59:10.494Z,2.6
2022-11-06T12:00:10.911Z,2.14
2022-11-06T12:01:11.239Z,2.14
2022-11-06T12:02:10.970Z,2.54
2022-11-06T12:03:11.030Z,2.54
2022-11-06T12:04:11.415Z,1.88
2022-11-06T12:05:11.036Z,2.57
2022-11-06T12:06:11.484Z,2.57
2022-11-06T12:07:10.797Z,2.68
2022-11-06T12:08:11.267Z,2.68
2022-11-06T12:09:11.361Z,2.36
2022-11-06T12:10:10.689Z,2.36
2022-11-06T12:11:11.042Z,1.76
2022-11-06T12:12:11.444Z,2.23
2022-11-06T12:13:10.851Z,2.23
2022-11-06T12:14:11.218Z,2.15
2022-11-06T12:15:10.675Z,1.88
2022-11-06T12:16:11.015Z,1.88
2022-11-06T12:17:11.390Z,2.1
2022-11-06T12:18:10.917Z,2.1
2022-11-06T12:19:11.066Z,1.48
2022-11-06T12:20:11.395Z,1.48
2022-11-06T12:21:10.737Z,2.14
2022-11-06T12:22:11.258Z,2.49
2022-11-06T12:23:10.622Z,2.49
2022-11-06T12:24:10.907Z,2.09
2022-11-06T12:25:11.311Z,2.09
2022-11-06T12:26:10.670Z,2.19
2022-11-06T12:27:11.052Z,2.19
2022-11-06T12:28:11.533Z,3.02
2022-11-06T12:29:10.735Z,1.15
2022-11-06T12:30:11.070Z,1.15
2022-11-06T12:31:11.369Z,2.45
2022-11-06T12:32:10.712Z,2.45
2022-11-06T12:33:11.092Z,1.49
2022-11-06T12:34:17.583Z,1.49
2022-11-06T12:35:10.794Z,1.85
2022-11-06T12:36:11.200Z,2.02
2022-11-06T12:37:10.506Z,2.02
2022-11-06T12:38:11.047Z,1.97
2022-11-06T12:39:11.078Z,1.59
2022-11-06T12:40:11.354Z,1.59
2022-11-06T12:41:10.656Z,1.97
2022-11-06T12:42:10.999Z,1.97
2022-11-06T12:43:11.363Z,2.29
2022-11-06T12:44:10.698Z,2.29
2022-11-06T12:45:11.337Z,1.81
2022-11-06T12:46:10.629Z,1.35
2022-11-06T12:47:11.038Z,1.35
2022-11-06T12:48:10.864Z,1.67
2022-11-06T12:49:11.057Z,1.67
2022-11-06T12:50:11.344Z,2.1
2022-11-06T12:51:10.817Z,2.1
2022-11-06T12:52:11.187Z,1.98
2022-11-06T12:53:10.558Z,2.06
2022-11-06T12:54:10.956Z,2.06
2022-11-06T12:55:11.307Z,1.18
2022-11-06T12:56:10.682Z,1.18
2022-11-06T12:57:11.057Z,1.48
2022-11-06T12:58:11.678Z,1.48
2022-11-06T12:59:10.797Z,1.72
2022-11-06T13:00:11.166Z,2.58
2022-11-06T13:01:10.927Z,2.58
2022-11-06T13:02:11.512Z,2.42
2022-11-06T13:03:10.564Z,1.58
2022-11-06T13:04:10.944Z,1.58
2022-11-06T13:05:11.321Z,1.71
2022-11-06T13:06:15.054Z,1.71
2022-11-06T13:07:11.061Z,1.37
2022-11-06T13:08:11.658Z,1.37
2022-11-06T13:09:10.695Z,1.56
2022-11-06T13:10:11.045Z,1.69
2022-11-06T13:11:11.411Z,1.69
2022-11-06T13:12:10.615Z,1.79
2022-11-06T13:13:16.955Z,1.79
2022-11-06T13:14:10.511Z,1.86
2022-11-06T13:15:10.909Z,1.86
2022-11-06T13:16:11.266Z,1.38
2022-11-06T13:17:10.629Z,1.41
2022-11-06T13:18:11.167Z,1.41
2022-11-06T13:19:11.357Z,1.63
2022-11-06T13:20:10.855Z,1.63